sensor_id;sensor_type;location;lat;lon;timestamp;P1;durP1;ratioP1;P2;durP2;ratioP2
22005;SDS011;11167;46.988;15.470;2022-12-29T00:01:46;17.98;;;12.53;;
22005;SDS011;11167;46.988;15.470;2022-12-29T00:03:48;18.90;;;12.63;;
22005;SDS011;11167;46.988;15.470;2022-12-29T00:05:58;17.80;;;12.28;;
22005;SDS011;11167;46.988;15.470;2022-12-29T00:07:56;17.92;;;12.90;;
22005;SDS011;11167;46.988;15.470;2022-12-29T00:09:57;18.30;;;12.82;;
22005;SDS011;11167;46.988;15.470;2022-12-29T00:11:58;19.90;;;13.15;;
22005;SDS011;11167;46.988;15.470;2022-12-29T00:14:03;20.45;;;13.58;;
22005;SDS011;11167;46.988;15.470;2022-12-29T00:16:23;20.72;;;13.30;;
22005;SDS011;11167;46.988;15.470;2022-12-29T00:18:24;19.48;;;13.15;;
22005;SDS011;11167;46.988;15.470;2022-12-29T00:20:27;19.40;;;13.15;;
22005;SDS011;11167;46.988;15.470;2022-12-29T00:22:47;20.30;;;13.65;;
22005;SDS011;11167;46.988;15.470;2022-12-29T00:25:07;20.30;;;12.65;;
22005;SDS011;11167;46.988;15.470;2022-12-29T00:27:29;20.92;;;14.28;;
22005;SDS011;11167;46.988;15.470;2022-12-29T00:29:49;19.80;;;13.95;;
22005;SDS011;11167;46.988;15.470;2022-12-29T00:32:09;22.20;;;14.65;;
22005;SDS011;11167;46.988;15.470;2022-12-29T00:34:29;20.17;;;13.25;;
22005;SDS011;11167;46.988;15.470;2022-12-29T00:36:49;20.65;;;13.75;;
22005;SDS011;11167;46.988;15.470;2022-12-29T00:38:51;19.70;;;13.62;;
22005;SDS011;11167;46.988;15.470;2022-12-29T00:41:19;22.25;;;14.30;;
22005;SDS011;11167;46.988;15.470;2022-12-29T00:43:39;21.17;;;14.03;;
22005;SDS011;11167;46.988;15.470;2022-12-29T00:46:00;20.12;;;14.43;;
22005;SDS011;11167;46.988;15.470;2022-12-29T00:48:01;20.00;;;14.30;;
22005;SDS011;11167;46.988;15.470;2022-12-29T00:50:03;21.52;;;15.05;;
22005;SDS011;11167;46.988;15.470;2022-12-29T00:52:10;22.77;;;13.98;;
22005;SDS011;11167;46.988;15.470;2022-12-29T00:54:10;21.30;;;14.23;;
22005;SDS011;11167;46.988;15.470;2022-12-29T00:56:12;22.07;;;14.47;;
22005;SDS011;11167;46.988;15.470;2022-12-29T00:58:13;21.52;;;14.25;;
22005;SDS011;11167;46.988;15.470;2022-12-29T01:00:14;20.20;;;13.90;;
22005;SDS011;11167;46.988;15.470;2022-12-29T01:02:16;19.65;;;14.15;;
22005;SDS011;11167;46.988;15.470;2022-12-29T01:04:17;20.35;;;13.80;;
22005;SDS011;11167;46.988;15.470;2022-12-29T01:06:19;20.15;;;14.15;;
22005;SDS011;11167;46.988;15.470;2022-12-29T01:08:20;21.07;;;14.05;;
22005;SDS011;11167;46.988;15.470;2022-12-29T01:10:21;20.82;;;14.35;;
22005;SDS011;11167;46.988;15.470;2022-12-29T01:12:22;20.85;;;14.63;;
22005;SDS011;11167;46.988;15.470;2022-12-29T01:14:26;20.95;;;14.68;;
22005;SDS011;11167;46.988;15.470;2022-12-29T01:16:27;20.27;;;13.85;;
22005;SDS011;11167;46.988;15.470;2022-12-29T01:18:28;20.43;;;13.75;;
22005;SDS011;11167;46.988;15.470;2022-12-29T01:20:29;20.65;;;14.53;;
22005;SDS011;11167;46.988;15.470;2022-12-29T01:22:31;20.95;;;14.23;;
22005;SDS011;11167;46.988;15.470;2022-12-29T01:24:32;21.25;;;14.87;;
22005;SDS011;11167;46.988;15.470;2022-12-29T01:26:33;21.70;;;14.70;;
22005;SDS011;11167;46.988;15.470;2022-12-29T01:28:34;22.73;;;15.13;;
22005;SDS011;11167;46.988;15.470;2022-12-29T01:30:35;21.75;;;14.70;;
22005;SDS011;11167;46.988;15.470;2022-12-29T01:32:37;23.15;;;14.90;;
22005;SDS011;11167;46.988;15.470;2022-12-29T01:34:39;21.45;;;14.30;;
22005;SDS011;11167;46.988;15.470;2022-12-29T01:36:40;23.27;;;14.55;;
22005;SDS011;11167;46.988;15.470;2022-12-29T01:38:41;20.92;;;14.03;;
22005;SDS011;11167;46.988;15.470;2022-12-29T01:40:44;20.95;;;14.30;;
22005;SDS011;11167;46.988;15.470;2022-12-29T01:42:46;19.12;;;13.55;;
22005;SDS011;11167;46.988;15.470;2022-12-29T01:44:48;22.20;;;14.83;;
22005;SDS011;11167;46.988;15.470;2022-12-29T01:46:51;22.85;;;14.50;;
22005;SDS011;11167;46.988;15.470;2022-12-29T01:48:54;20.37;;;14.13;;
22005;SDS011;11167;46.988;15.470;2022-12-29T01:51:04;20.97;;;14.23;;
22005;SDS011;11167;46.988;15.470;2022-12-29T01:53:13;21.85;;;14.53;;
22005;SDS011;11167;46.988;15.470;2022-12-29T01:55:16;20.05;;;13.93;;
22005;SDS011;11167;46.988;15.470;2022-12-29T01:57:23;20.02;;;14.18;;
22005;SDS011;11167;46.988;15.470;2022-12-29T01:59:36;20.55;;;14.43;;
22005;SDS011;11167;46.988;15.470;2022-12-29T02:01:37;22.87;;;14.98;;
22005;SDS011;11167;46.988;15.470;2022-12-29T02:03:38;21.20;;;14.45;;
22005;SDS011;11167;46.988;15.470;2022-12-29T02:05:42;19.25;;;13.83;;
22005;SDS011;11167;46.988;15.470;2022-12-29T02:07:47;20.90;;;14.00;;
22005;SDS011;11167;46.988;15.470;2022-12-29T02:09:49;22.45;;;14.35;;
22005;SDS011;11167;46.988;15.470;2022-12-29T02:11:52;21.93;;;15.63;;
22005;SDS011;11167;46.988;15.470;2022-12-29T02:13:54;22.32;;;15.15;;
22005;SDS011;11167;46.988;15.470;2022-12-29T02:16:02;22.10;;;14.33;;
22005;SDS011;11167;46.988;15.470;2022-12-29T02:20:55;21.95;;;14.53;;
22005;SDS011;11167;46.988;15.470;2022-12-29T02:30:00;22.22;;;14.60;;
22005;SDS011;11167;46.988;15.470;2022-12-29T02:34:20;19.90;;;13.62;;
22005;SDS011;11167;46.988;15.470;2022-12-29T02:52:11;20.23;;;14.05;;
22005;SDS011;11167;46.988;15.470;2022-12-29T02:54:16;19.30;;;14.28;;
22005;SDS011;11167;46.988;15.470;2022-12-29T02:56:38;20.10;;;13.53;;
22005;SDS011;11167;46.988;15.470;2022-12-29T02:58:39;20.85;;;13.98;;
22005;SDS011;11167;46.988;15.470;2022-12-29T03:00:43;21.48;;;13.98;;
22005;SDS011;11167;46.988;15.470;2022-12-29T03:05:14;20.33;;;14.17;;
22005;SDS011;11167;46.988;15.470;2022-12-29T03:11:59;18.95;;;13.20;;
22005;SDS011;11167;46.988;15.470;2022-12-29T03:16:40;18.90;;;13.00;;
22005;SDS011;11167;46.988;15.470;2022-12-29T03:19:05;22.30;;;13.20;;
22005;SDS011;11167;46.988;15.470;2022-12-29T03:21:29;18.65;;;13.13;;
22005;SDS011;11167;46.988;15.470;2022-12-29T03:23:55;19.17;;;13.75;;
22005;SDS011;11167;46.988;15.470;2022-12-29T03:25:57;20.77;;;13.65;;
22005;SDS011;11167;46.988;15.470;2022-12-29T03:28:02;20.72;;;13.58;;
22005;SDS011;11167;46.988;15.470;2022-12-29T03:30:06;20.35;;;13.75;;
22005;SDS011;11167;46.988;15.470;2022-12-29T03:32:09;19.60;;;13.48;;
22005;SDS011;11167;46.988;15.470;2022-12-29T03:36:30;20.80;;;13.28;;
22005;SDS011;11167;46.988;15.470;2022-12-29T03:38:44;21.68;;;14.23;;
22005;SDS011;11167;46.988;15.470;2022-12-29T03:40:51;19.17;;;13.85;;
22005;SDS011;11167;46.988;15.470;2022-12-29T03:42:53;18.92;;;13.35;;
22005;SDS011;11167;46.988;15.470;2022-12-29T03:44:56;22.07;;;14.15;;
22005;SDS011;11167;46.988;15.470;2022-12-29T03:46:57;19.55;;;13.18;;
22005;SDS011;11167;46.988;15.470;2022-12-29T03:48:59;19.37;;;13.62;;
22005;SDS011;11167;46.988;15.470;2022-12-29T03:51:02;20.40;;;13.72;;
22005;SDS011;11167;46.988;15.470;2022-12-29T03:53:03;18.92;;;13.18;;
22005;SDS011;11167;46.988;15.470;2022-12-29T03:55:05;19.85;;;13.32;;
22005;SDS011;11167;46.988;15.470;2022-12-29T03:57:07;17.25;;;12.88;;
22005;SDS011;11167;46.988;15.470;2022-12-29T03:59:09;21.87;;;13.25;;
22005;SDS011;11167;46.988;15.470;2022-12-29T04:01:10;19.85;;;13.28;;
22005;SDS011;11167;46.988;15.470;2022-12-29T04:03:11;19.45;;;13.32;;
22005;SDS011;11167;46.988;15.470;2022-12-29T04:05:12;19.05;;;13.35;;
22005;SDS011;11167;46.988;15.470;2022-12-29T04:07:14;19.35;;;13.22;;
22005;SDS011;11167;46.988;15.470;2022-12-29T04:09:15;20.48;;;12.95;;
22005;SDS011;11167;46.988;15.470;2022-12-29T04:11:16;19.70;;;14.07;;
22005;SDS011;11167;46.988;15.470;2022-12-29T04:13:17;20.80;;;13.93;;
22005;SDS011;11167;46.988;15.470;2022-12-29T04:15:18;20.12;;;13.98;;
22005;SDS011;11167;46.988;15.470;2022-12-29T04:17:19;21.55;;;14.75;;
22005;SDS011;11167;46.988;15.470;2022-12-29T04:19:21;23.65;;;14.15;;
22005;SDS011;11167;46.988;15.470;2022-12-29T04:21:23;20.65;;;13.32;;
22005;SDS011;11167;46.988;15.470;2022-12-29T04:23:24;19.95;;;14.05;;
22005;SDS011;11167;46.988;15.470;2022-12-29T04:25:25;20.17;;;13.75;;
22005;SDS011;11167;46.988;15.470;2022-12-29T04:27:26;23.02;;;14.95;;
22005;SDS011;11167;46.988;15.470;2022-12-29T04:29:28;19.65;;;13.53;;
22005;SDS011;11167;46.988;15.470;2022-12-29T04:31:29;20.32;;;14.10;;
22005;SDS011;11167;46.988;15.470;2022-12-29T04:33:30;21.02;;;14.63;;
22005;SDS011;11167;46.988;15.470;2022-12-29T04:35:32;21.12;;;14.28;;
22005;SDS011;11167;46.988;15.470;2022-12-29T04:37:33;19.35;;;13.93;;
22005;SDS011;11167;46.988;15.470;2022-12-29T04:39:34;21.23;;;14.13;;
22005;SDS011;11167;46.988;15.470;2022-12-29T04:41:35;19.80;;;13.45;;
22005;SDS011;11167;46.988;15.470;2022-12-29T04:43:36;20.02;;;13.45;;
22005;SDS011;11167;46.988;15.470;2022-12-29T04:45:44;17.48;;;12.33;;
22005;SDS011;11167;46.988;15.470;2022-12-29T04:47:45;19.70;;;13.35;;
22005;SDS011;11167;46.988;15.470;2022-12-29T04:49:46;25.35;;;14.28;;
22005;SDS011;11167;46.988;15.470;2022-12-29T04:51:47;20.27;;;13.62;;
22005;SDS011;11167;46.988;15.470;2022-12-29T04:53:48;18.90;;;13.13;;
22005;SDS011;11167;46.988;15.470;2022-12-29T04:55:50;18.07;;;12.95;;
22005;SDS011;11167;46.988;15.470;2022-12-29T04:57:53;19.35;;;12.53;;
22005;SDS011;11167;46.988;15.470;2022-12-29T04:59:54;20.15;;;12.65;;
22005;SDS011;11167;46.988;15.470;2022-12-29T05:01:55;19.07;;;13.25;;
22005;SDS011;11167;46.988;15.470;2022-12-29T05:06:17;18.45;;;13.05;;
22005;SDS011;11167;46.988;15.470;2022-12-29T05:08:18;18.27;;;12.07;;
22005;SDS011;11167;46.988;15.470;2022-12-29T05:10:19;17.90;;;12.95;;
22005;SDS011;11167;46.988;15.470;2022-12-29T05:12:21;17.92;;;12.58;;
22005;SDS011;11167;46.988;15.470;2022-12-29T05:14:23;17.57;;;12.58;;
22005;SDS011;11167;46.988;15.470;2022-12-29T05:16:24;20.12;;;13.93;;
22005;SDS011;11167;46.988;15.470;2022-12-29T05:18:25;20.48;;;13.05;;
22005;SDS011;11167;46.988;15.470;2022-12-29T05:20:26;19.32;;;12.68;;
22005;SDS011;11167;46.988;15.470;2022-12-29T05:22:27;19.48;;;13.05;;
22005;SDS011;11167;46.988;15.470;2022-12-29T05:24:29;17.65;;;12.53;;
22005;SDS011;11167;46.988;15.470;2022-12-29T05:26:30;19.23;;;13.30;;
22005;SDS011;11167;46.988;15.470;2022-12-29T05:28:31;18.32;;;12.85;;
22005;SDS011;11167;46.988;15.470;2022-12-29T05:30:32;18.77;;;13.30;;
22005;SDS011;11167;46.988;15.470;2022-12-29T05:32:33;17.32;;;12.53;;
22005;SDS011;11167;46.988;15.470;2022-12-29T05:34:34;21.12;;;13.58;;
22005;SDS011;11167;46.988;15.470;2022-12-29T05:36:35;18.05;;;12.28;;
22005;SDS011;11167;46.988;15.470;2022-12-29T05:38:37;17.65;;;13.08;;
22005;SDS011;11167;46.988;15.470;2022-12-29T05:40:38;18.23;;;12.45;;
22005;SDS011;11167;46.988;15.470;2022-12-29T05:42:39;18.75;;;12.68;;
22005;SDS011;11167;46.988;15.470;2022-12-29T05:44:40;22.00;;;13.58;;
22005;SDS011;11167;46.988;15.470;2022-12-29T05:46:41;20.27;;;13.05;;
22005;SDS011;11167;46.988;15.470;2022-12-29T05:48:43;17.23;;;12.33;;
22005;SDS011;11167;46.988;15.470;2022-12-29T05:50:51;18.82;;;13.00;;
22005;SDS011;11167;46.988;15.470;2022-12-29T05:52:52;18.15;;;12.45;;
22005;SDS011;11167;46.988;15.470;2022-12-29T05:54:54;18.17;;;12.93;;
22005;SDS011;11167;46.988;15.470;2022-12-29T05:56:55;19.05;;;12.58;;
22005;SDS011;11167;46.988;15.470;2022-12-29T05:58:56;19.35;;;12.68;;
22005;SDS011;11167;46.988;15.470;2022-12-29T06:00:57;19.45;;;13.03;;
22005;SDS011;11167;46.988;15.470;2022-12-29T06:02:58;17.65;;;12.90;;
22005;SDS011;11167;46.988;15.470;2022-12-29T06:04:59;17.87;;;12.60;;
22005;SDS011;11167;46.988;15.470;2022-12-29T06:07:01;18.35;;;12.20;;
22005;SDS011;11167;46.988;15.470;2022-12-29T06:09:02;19.77;;;13.22;;
22005;SDS011;11167;46.988;15.470;2022-12-29T06:11:04;18.05;;;12.53;;
22005;SDS011;11167;46.988;15.470;2022-12-29T06:13:07;20.30;;;12.93;;
22005;SDS011;11167;46.988;15.470;2022-12-29T06:15:08;19.53;;;13.00;;
22005;SDS011;11167;46.988;15.470;2022-12-29T06:17:10;20.12;;;13.35;;
22005;SDS011;11167;46.988;15.470;2022-12-29T06:19:11;18.12;;;12.10;;
22005;SDS011;11167;46.988;15.470;2022-12-29T06:21:12;19.62;;;12.50;;
22005;SDS011;11167;46.988;15.470;2022-12-29T06:23:13;17.45;;;12.23;;
22005;SDS011;11167;46.988;15.470;2022-12-29T06:25:15;18.95;;;12.80;;
22005;SDS011;11167;46.988;15.470;2022-12-29T06:27:16;19.95;;;12.58;;
22005;SDS011;11167;46.988;15.470;2022-12-29T06:29:17;19.85;;;12.65;;
22005;SDS011;11167;46.988;15.470;2022-12-29T06:31:19;17.70;;;12.33;;
22005;SDS011;11167;46.988;15.470;2022-12-29T06:33:21;21.60;;;14.00;;
22005;SDS011;11167;46.988;15.470;2022-12-29T06:35:22;26.42;;;18.27;;
22005;SDS011;11167;46.988;15.470;2022-12-29T06:37:23;27.65;;;19.45;;
22005;SDS011;11167;46.988;15.470;2022-12-29T06:39:24;31.45;;;20.48;;
22005;SDS011;11167;46.988;15.470;2022-12-29T06:41:25;27.65;;;19.23;;
22005;SDS011;11167;46.988;15.470;2022-12-29T06:43:26;25.48;;;17.67;;
22005;SDS011;11167;46.988;15.470;2022-12-29T06:45:27;23.73;;;16.52;;
22005;SDS011;11167;46.988;15.470;2022-12-29T06:47:29;23.75;;;15.45;;
22005;SDS011;11167;46.988;15.470;2022-12-29T06:49:30;22.00;;;15.50;;
22005;SDS011;11167;46.988;15.470;2022-12-29T06:51:31;21.40;;;15.03;;
22005;SDS011;11167;46.988;15.470;2022-12-29T06:53:32;22.62;;;14.83;;
22005;SDS011;11167;46.988;15.470;2022-12-29T06:55:33;22.15;;;13.93;;
22005;SDS011;11167;46.988;15.470;2022-12-29T06:57:34;20.30;;;14.63;;
22005;SDS011;11167;46.988;15.470;2022-12-29T06:59:36;20.40;;;14.25;;
22005;SDS011;11167;46.988;15.470;2022-12-29T07:01:37;21.82;;;13.48;;
22005;SDS011;11167;46.988;15.470;2022-12-29T07:03:40;21.45;;;14.28;;
22005;SDS011;11167;46.988;15.470;2022-12-29T07:07:43;23.75;;;14.60;;
22005;SDS011;11167;46.988;15.470;2022-12-29T07:09:44;19.65;;;14.75;;
22005;SDS011;11167;46.988;15.470;2022-12-29T07:11:46;23.77;;;15.03;;
22005;SDS011;11167;46.988;15.470;2022-12-29T07:13:47;20.77;;;14.87;;
22005;SDS011;11167;46.988;15.470;2022-12-29T07:15:48;22.22;;;15.48;;
22005;SDS011;11167;46.988;15.470;2022-12-29T07:17:49;20.65;;;14.85;;
22005;SDS011;11167;46.988;15.470;2022-12-29T07:21:56;21.85;;;15.23;;
22005;SDS011;11167;46.988;15.470;2022-12-29T07:23:57;24.37;;;15.93;;
22005;SDS011;11167;46.988;15.470;2022-12-29T07:25:59;25.43;;;16.23;;
22005;SDS011;11167;46.988;15.470;2022-12-29T07:28:01;24.85;;;16.73;;
22005;SDS011;11167;46.988;15.470;2022-12-29T07:30:04;25.77;;;17.73;;
22005;SDS011;11167;46.988;15.470;2022-12-29T07:32:05;26.15;;;16.80;;
22005;SDS011;11167;46.988;15.470;2022-12-29T07:34:07;24.12;;;16.35;;
22005;SDS011;11167;46.988;15.470;2022-12-29T07:36:09;22.80;;;16.10;;
22005;SDS011;11167;46.988;15.470;2022-12-29T07:38:11;24.87;;;15.72;;
22005;SDS011;11167;46.988;15.470;2022-12-29T07:40:13;22.55;;;15.83;;
22005;SDS011;11167;46.988;15.470;2022-12-29T07:42:14;22.50;;;15.40;;
22005;SDS011;11167;46.988;15.470;2022-12-29T07:44:16;24.75;;;16.27;;
22005;SDS011;11167;46.988;15.470;2022-12-29T07:46:17;23.75;;;15.65;;
22005;SDS011;11167;46.988;15.470;2022-12-29T07:48:18;25.20;;;16.27;;
22005;SDS011;11167;46.988;15.470;2022-12-29T07:50:19;22.87;;;15.93;;
22005;SDS011;11167;46.988;15.470;2022-12-29T07:52:21;21.20;;;14.80;;
22005;SDS011;11167;46.988;15.470;2022-12-29T07:54:22;22.02;;;15.23;;
22005;SDS011;11167;46.988;15.470;2022-12-29T07:56:23;22.75;;;15.40;;
22005;SDS011;11167;46.988;15.470;2022-12-29T07:58:25;22.60;;;15.45;;
22005;SDS011;11167;46.988;15.470;2022-12-29T08:00:26;23.25;;;14.87;;
22005;SDS011;11167;46.988;15.470;2022-12-29T08:02:27;20.85;;;14.75;;
22005;SDS011;11167;46.988;15.470;2022-12-29T08:04:30;23.18;;;15.50;;
22005;SDS011;11167;46.988;15.470;2022-12-29T08:06:31;21.93;;;14.68;;
22005;SDS011;11167;46.988;15.470;2022-12-29T08:08:32;21.62;;;14.78;;
22005;SDS011;11167;46.988;15.470;2022-12-29T08:10:33;21.90;;;14.63;;
22005;SDS011;11167;46.988;15.470;2022-12-29T08:12:34;19.70;;;14.20;;
22005;SDS011;11167;46.988;15.470;2022-12-29T08:14:35;21.35;;;15.08;;
22005;SDS011;11167;46.988;15.470;2022-12-29T08:16:36;20.55;;;14.30;;
22005;SDS011;11167;46.988;15.470;2022-12-29T08:18:38;20.10;;;13.83;;
22005;SDS011;11167;46.988;15.470;2022-12-29T08:20:39;21.23;;;14.87;;
22005;SDS011;11167;46.988;15.470;2022-12-29T08:22:40;17.90;;;13.85;;
22005;SDS011;11167;46.988;15.470;2022-12-29T08:24:41;20.80;;;14.70;;
22005;SDS011;11167;46.988;15.470;2022-12-29T08:26:42;18.55;;;13.80;;
22005;SDS011;11167;46.988;15.470;2022-12-29T08:28:43;19.62;;;13.65;;
22005;SDS011;11167;46.988;15.470;2022-12-29T08:30:44;18.67;;;14.03;;
22005;SDS011;11167;46.988;15.470;2022-12-29T08:32:46;18.00;;;13.30;;
22005;SDS011;11167;46.988;15.470;2022-12-29T08:34:47;17.62;;;13.20;;
22005;SDS011;11167;46.988;15.470;2022-12-29T08:36:48;18.57;;;13.85;;
22005;SDS011;11167;46.988;15.470;2022-12-29T08:38:49;19.77;;;13.50;;
22005;SDS011;11167;46.988;15.470;2022-12-29T08:40:51;20.55;;;13.48;;
22005;SDS011;11167;46.988;15.470;2022-12-29T08:42:52;20.00;;;13.60;;
22005;SDS011;11167;46.988;15.470;2022-12-29T08:44:53;21.12;;;13.95;;
22005;SDS011;11167;46.988;15.470;2022-12-29T08:46:54;19.45;;;13.30;;
22005;SDS011;11167;46.988;15.470;2022-12-29T08:48:55;18.10;;;13.15;;
22005;SDS011;11167;46.988;15.470;2022-12-29T08:50:56;19.70;;;13.53;;
22005;SDS011;11167;46.988;15.470;2022-12-29T08:52:58;17.67;;;12.55;;
22005;SDS011;11167;46.988;15.470;2022-12-29T08:54:59;17.37;;;12.47;;
22005;SDS011;11167;46.988;15.470;2022-12-29T08:57:00;16.37;;;11.60;;
22005;SDS011;11167;46.988;15.470;2022-12-29T08:59:01;15.72;;;11.85;;
22005;SDS011;11167;46.988;15.470;2022-12-29T09:01:02;15.65;;;11.15;;
22005;SDS011;11167;46.988;15.470;2022-12-29T09:03:04;14.45;;;10.15;;
22005;SDS011;11167;46.988;15.470;2022-12-29T09:05:05;15.25;;;10.35;;
22005;SDS011;11167;46.988;15.470;2022-12-29T09:07:07;14.18;;;9.98;;
22005;SDS011;11167;46.988;15.470;2022-12-29T09:09:09;12.78;;;9.58;;
22005;SDS011;11167;46.988;15.470;2022-12-29T09:11:23;14.43;;;9.70;;
22005;SDS011;11167;46.988;15.470;2022-12-29T09:13:22;15.10;;;9.70;;
22005;SDS011;11167;46.988;15.470;2022-12-29T09:15:23;15.00;;;10.00;;
22005;SDS011;11167;46.988;15.470;2022-12-29T09:17:24;15.05;;;9.95;;
22005;SDS011;11167;46.988;15.470;2022-12-29T09:19:43;15.28;;;9.85;;
22005;SDS011;11167;46.988;15.470;2022-12-29T09:21:45;16.00;;;11.22;;
22005;SDS011;11167;46.988;15.470;2022-12-29T09:23:46;15.80;;;10.48;;
22005;SDS011;11167;46.988;15.470;2022-12-29T09:25:50;14.38;;;10.60;;
22005;SDS011;11167;46.988;15.470;2022-12-29T09:27:51;15.48;;;10.65;;
22005;SDS011;11167;46.988;15.470;2022-12-29T09:29:53;17.07;;;10.68;;
22005;SDS011;11167;46.988;15.470;2022-12-29T09:31:55;15.75;;;10.93;;
22005;SDS011;11167;46.988;15.470;2022-12-29T09:33:56;13.03;;;9.90;;
22005;SDS011;11167;46.988;15.470;2022-12-29T09:35:57;15.90;;;10.38;;
22005;SDS011;11167;46.988;15.470;2022-12-29T09:37:59;15.20;;;10.50;;
22005;SDS011;11167;46.988;15.470;2022-12-29T09:40:00;13.65;;;10.28;;
22005;SDS011;11167;46.988;15.470;2022-12-29T09:44:26;14.58;;;9.98;;
22005;SDS011;11167;46.988;15.470;2022-12-29T09:46:51;13.28;;;9.23;;
22005;SDS011;11167;46.988;15.470;2022-12-29T09:48:59;12.65;;;9.63;;
22005;SDS011;11167;46.988;15.470;2022-12-29T09:51:15;12.98;;;8.93;;
22005;SDS011;11167;46.988;15.470;2022-12-29T09:53:21;12.70;;;9.20;;
22005;SDS011;11167;46.988;15.470;2022-12-29T09:55:25;12.88;;;9.10;;
22005;SDS011;11167;46.988;15.470;2022-12-29T09:57:35;13.05;;;9.50;;
22005;SDS011;11167;46.988;15.470;2022-12-29T09:59:57;12.82;;;8.90;;
22005;SDS011;11167;46.988;15.470;2022-12-29T10:02:11;12.95;;;8.48;;
22005;SDS011;11167;46.988;15.470;2022-12-29T10:04:18;11.85;;;8.78;;
22005;SDS011;11167;46.988;15.470;2022-12-29T10:15:17;11.60;;;7.85;;
22005;SDS011;11167;46.988;15.470;2022-12-29T10:24:29;10.98;;;7.80;;
22005;SDS011;11167;46.988;15.470;2022-12-29T10:26:36;11.75;;;7.67;;
22005;SDS011;11167;46.988;15.470;2022-12-29T10:28:43;10.58;;;7.40;;
22005;SDS011;11167;46.988;15.470;2022-12-29T10:30:48;10.25;;;6.95;;
22005;SDS011;11167;46.988;15.470;2022-12-29T10:32:55;9.03;;;6.60;;
22005;SDS011;11167;46.988;15.470;2022-12-29T10:35:00;9.18;;;6.53;;
22005;SDS011;11167;46.988;15.470;2022-12-29T10:39:40;10.20;;;6.97;;
22005;SDS011;11167;46.988;15.470;2022-12-29T10:44:12;8.13;;;6.15;;
22005;SDS011;11167;46.988;15.470;2022-12-29T10:46:21;9.00;;;6.05;;
22005;SDS011;11167;46.988;15.470;2022-12-29T10:48:27;9.90;;;6.25;;
22005;SDS011;11167;46.988;15.470;2022-12-29T10:50:31;8.88;;;6.10;;
22005;SDS011;11167;46.988;15.470;2022-12-29T10:52:33;9.15;;;6.30;;
22005;SDS011;11167;46.988;15.470;2022-12-29T10:54:45;9.10;;;6.10;;
22005;SDS011;11167;46.988;15.470;2022-12-29T10:57:08;8.10;;;6.20;;
22005;SDS011;11167;46.988;15.470;2022-12-29T10:59:10;9.15;;;6.22;;
22005;SDS011;11167;46.988;15.470;2022-12-29T11:01:13;9.00;;;6.33;;
22005;SDS011;11167;46.988;15.470;2022-12-29T11:05:44;8.40;;;6.35;;
22005;SDS011;11167;46.988;15.470;2022-12-29T11:07:49;8.23;;;5.78;;
22005;SDS011;11167;46.988;15.470;2022-12-29T11:09:53;8.15;;;6.30;;
22005;SDS011;11167;46.988;15.470;2022-12-29T11:11:54;7.97;;;5.65;;
22005;SDS011;11167;46.988;15.470;2022-12-29T11:13:57;8.33;;;6.10;;
22005;SDS011;11167;46.988;15.470;2022-12-29T11:16:01;8.60;;;6.22;;
22005;SDS011;11167;46.988;15.470;2022-12-29T11:18:03;7.55;;;5.80;;
22005;SDS011;11167;46.988;15.470;2022-12-29T11:22:35;9.28;;;6.12;;
22005;SDS011;11167;46.988;15.470;2022-12-29T11:24:43;10.93;;;6.87;;
22005;SDS011;11167;46.988;15.470;2022-12-29T11:26:45;8.85;;;6.58;;
22005;SDS011;11167;46.988;15.470;2022-12-29T11:28:47;8.18;;;5.58;;
22005;SDS011;11167;46.988;15.470;2022-12-29T11:31:08;8.18;;;6.20;;
22005;SDS011;11167;46.988;15.470;2022-12-29T11:33:11;8.40;;;5.80;;
22005;SDS011;11167;46.988;15.470;2022-12-29T11:35:18;9.68;;;6.75;;
22005;SDS011;11167;46.988;15.470;2022-12-29T11:37:39;7.42;;;5.72;;
22005;SDS011;11167;46.988;15.470;2022-12-29T11:39:59;9.00;;;6.12;;
22005;SDS011;11167;46.988;15.470;2022-12-29T11:41:51;8.80;;;5.97;;
22005;SDS011;11167;46.988;15.470;2022-12-29T11:44:01;8.68;;;6.33;;
22005;SDS011;11167;46.988;15.470;2022-12-29T11:46:05;8.53;;;6.00;;
22005;SDS011;11167;46.988;15.470;2022-12-29T11:48:07;7.28;;;5.62;;
22005;SDS011;11167;46.988;15.470;2022-12-29T11:50:16;7.95;;;5.87;;
22005;SDS011;11167;46.988;15.470;2022-12-29T11:52:16;8.10;;;5.55;;
22005;SDS011;11167;46.988;15.470;2022-12-29T11:57:07;8.40;;;6.35;;
22005;SDS011;11167;46.988;15.470;2022-12-29T11:58:42;7.67;;;5.90;;
22005;SDS011;11167;46.988;15.470;2022-12-29T12:00:44;7.45;;;5.53;;
22005;SDS011;11167;46.988;15.470;2022-12-29T12:02:55;8.28;;;5.90;;
22005;SDS011;11167;46.988;15.470;2022-12-29T12:05:14;8.10;;;6.00;;
22005;SDS011;11167;46.988;15.470;2022-12-29T12:07:44;8.03;;;5.83;;
22005;SDS011;11167;46.988;15.470;2022-12-29T12:11:52;7.30;;;5.83;;
22005;SDS011;11167;46.988;15.470;2022-12-29T12:22:33;9.38;;;6.35;;
22005;SDS011;11167;46.988;15.470;2022-12-29T12:24:42;7.78;;;6.20;;
22005;SDS011;11167;46.988;15.470;2022-12-29T12:27:11;8.23;;;6.05;;
22005;SDS011;11167;46.988;15.470;2022-12-29T12:29:23;9.93;;;6.42;;
22005;SDS011;11167;46.988;15.470;2022-12-29T12:33:44;8.18;;;6.00;;
22005;SDS011;11167;46.988;15.470;2022-12-29T12:50:26;8.53;;;6.28;;
22005;SDS011;11167;46.988;15.470;2022-12-29T13:01:38;5.95;;;4.47;;
22005;SDS011;11167;46.988;15.470;2022-12-29T13:06:17;6.45;;;4.50;;
22005;SDS011;11167;46.988;15.470;2022-12-29T13:10:39;5.95;;;4.47;;
22005;SDS011;11167;46.988;15.470;2022-12-29T13:15:19;4.70;;;3.62;;
22005;SDS011;11167;46.988;15.470;2022-12-29T13:24:12;5.33;;;3.35;;
22005;SDS011;11167;46.988;15.470;2022-12-29T13:26:16;4.58;;;3.42;;
22005;SDS011;11167;46.988;15.470;2022-12-29T13:28:22;4.10;;;3.20;;
22005;SDS011;11167;46.988;15.470;2022-12-29T13:30:31;4.42;;;3.20;;
22005;SDS011;11167;46.988;15.470;2022-12-29T13:32:40;4.80;;;3.20;;
22005;SDS011;11167;46.988;15.470;2022-12-29T13:34:48;3.98;;;3.10;;
22005;SDS011;11167;46.988;15.470;2022-12-29T13:36:53;4.97;;;2.95;;
22005;SDS011;11167;46.988;15.470;2022-12-29T13:41:30;3.47;;;2.70;;
22005;SDS011;11167;46.988;15.470;2022-12-29T13:43:34;5.78;;;3.20;;
22005;SDS011;11167;46.988;15.470;2022-12-29T13:45:38;4.22;;;3.02;;
22005;SDS011;11167;46.988;15.470;2022-12-29T13:47:46;4.58;;;3.02;;
22005;SDS011;11167;46.988;15.470;2022-12-29T13:49:52;3.90;;;3.15;;
22005;SDS011;11167;46.988;15.470;2022-12-29T13:56:36;5.45;;;3.35;;
22005;SDS011;11167;46.988;15.470;2022-12-29T14:05:31;4.10;;;2.77;;
22005;SDS011;11167;46.988;15.470;2022-12-29T14:07:36;3.90;;;3.20;;
22005;SDS011;11167;46.988;15.470;2022-12-29T14:11:52;3.62;;;3.20;;
22005;SDS011;11167;46.988;15.470;2022-12-29T14:13:54;3.70;;;2.90;;
22005;SDS011;11167;46.988;15.470;2022-12-29T14:15:56;4.37;;;3.08;;
22005;SDS011;11167;46.988;15.470;2022-12-29T14:18:03;4.35;;;2.85;;
22005;SDS011;11167;46.988;15.470;2022-12-29T14:20:17;4.30;;;3.25;;
22005;SDS011;11167;46.988;15.470;2022-12-29T14:22:25;5.10;;;3.25;;
22005;SDS011;11167;46.988;15.470;2022-12-29T14:26:38;3.35;;;2.75;;
22005;SDS011;11167;46.988;15.470;2022-12-29T14:28:44;4.22;;;3.02;;